Terminal Aerodrome Forecast
Issued by NWS

Home | Current Version | Previous Version | Text Only | Print | Product List | Glossary On
Versions: 1 2 3 4 5 6 7 8 9 10 11 12 13 14
000
FTUS42 TJSJ 211100
TAFJMZ
TAF
TJMZ 211137Z 2112/2212 VRB04KT P6SM FEW025 SCT120
     FM211530 29010KT P6SM SCT025
      TEMPO 2117/2121 5SM TSRA BKN030CB
     FM212330 09006KT P6SM SCT030
      AMD NOT SKED TIL 211600=

USA.gov is the U.S. government's official web portal to all federal, state and local government web resources and services.